createdAt,value
2023-05-02T00:00:39.167Z,32.58
2023-05-02T00:03:10.789Z,32.55
2023-05-02T00:05:50.630Z,32.57
2023-05-02T00:08:40.545Z,32.55
2023-05-02T00:11:13.702Z,32.57
2023-05-02T00:13:47.342Z,32.57
2023-05-02T00:16:20.655Z,32.58
2023-05-02T00:18:50.869Z,32.57
2023-05-02T00:21:20.935Z,32.58
2023-05-02T00:23:52.784Z,32.59
2023-05-02T00:26:22.906Z,32.58
2023-05-02T00:28:52.972Z,32.56
2023-05-02T00:31:23.150Z,32.59
2023-05-02T00:33:53.289Z,32.59
2023-05-02T00:36:23.749Z,32.60
2023-05-02T00:38:53.934Z,32.61
2023-05-02T00:41:24.195Z,32.61
2023-05-02T00:43:54.621Z,32.61
2023-05-02T00:46:25.352Z,32.61
2023-05-02T00:48:55.593Z,32.62
2023-05-02T00:51:26.561Z,32.63
2023-05-02T00:53:56.862Z,32.63
2023-05-02T00:56:27.807Z,32.65
2023-05-02T00:58:59.451Z,32.67
2023-05-02T01:01:29.589Z,32.68
2023-05-02T01:04:03.759Z,32.68
2023-05-02T01:06:53.585Z,32.69
2023-05-02T01:09:33.292Z,32.70
2023-05-02T01:12:06.595Z,32.71
2023-05-02T01:14:44.091Z,32.73
2023-05-02T01:17:16.959Z,32.75
2023-05-02T01:19:52.919Z,32.76
2023-05-02T01:22:24.565Z,32.78
2023-05-02T01:25:00.808Z,32.81
2023-05-02T01:27:49.315Z,32.83
2023-05-02T01:30:22.307Z,32.83
2023-05-02T01:33:04.252Z,32.86
2023-05-02T01:35:48.484Z,32.89
2023-05-02T01:38:23.832Z,32.91
2023-05-02T01:40:54.629Z,32.92
2023-05-02T01:43:26.475Z,32.93
2023-05-02T01:45:59.749Z,32.98
2023-05-02T01:48:32.550Z,32.98
2023-05-02T01:51:06.757Z,32.99
2023-05-02T01:53:54.321Z,33.01
2023-05-02T01:56:26.932Z,33.04
2023-05-02T01:58:58.315Z,33.06
2023-05-02T02:01:33.441Z,33.07
2023-05-02T02:04:07.148Z,33.08
2023-05-02T02:06:42.050Z,33.10
2023-05-02T02:09:15.858Z,33.12
2023-05-02T02:11:55.133Z,33.14
2023-05-02T02:14:36.407Z,33.17
2023-05-02T02:17:11.837Z,33.21
2023-05-02T02:19:44.122Z,33.21
2023-05-02T02:22:17.110Z,33.24
2023-05-02T02:24:54.412Z,33.24
2023-05-02T02:27:25.215Z,33.28
2023-05-02T02:29:57.085Z,33.31
2023-05-02T02:32:30.129Z,33.28
2023-05-02T02:35:06.179Z,33.25
2023-05-02T02:37:59.352Z,33.27
2023-05-02T02:41:07.643Z,33.32
2023-05-02T02:43:55.853Z,33.35
2023-05-02T02:46:49.584Z,33.38
2023-05-02T02:49:44.507Z,33.44
2023-05-02T02:52:21.756Z,33.46
2023-05-02T02:54:55.457Z,33.50
2023-05-02T02:57:28.504Z,33.52
2023-05-02T03:00:12.000Z,33.53
2023-05-02T03:02:47.519Z,33.58
2023-05-02T03:05:22.430Z,33.64
2023-05-02T03:07:55.772Z,33.65
2023-05-02T03:10:28.102Z,33.69
2023-05-02T03:12:58.995Z,33.73
2023-05-02T03:15:42.436Z,33.77
2023-05-02T03:18:15.948Z,33.85
2023-05-02T03:20:46.475Z,33.87
2023-05-02T03:23:21.361Z,33.91
2023-05-02T03:25:57.387Z,33.95
2023-05-02T03:28:29.230Z,33.99
2023-05-02T03:31:01.310Z,33.99
2023-05-02T03:33:36.263Z,34.00
2023-05-02T03:36:07.011Z,34.01
2023-05-02T03:38:37.790Z,33.99
2023-05-02T03:41:26.332Z,34.01
2023-05-02T03:44:11.135Z,34.01
2023-05-02T03:46:42.222Z,34.01
2023-05-02T03:49:15.239Z,34.01
2023-05-02T03:51:49.768Z,34.02
2023-05-02T03:54:25.697Z,34.04
2023-05-02T03:56:59.723Z,34.05
2023-05-02T03:59:37.043Z,34.07
2023-05-02T04:02:18.638Z,34.06
2023-05-02T04:05:00.886Z,34.07
2023-05-02T04:07:31.502Z,34.08
2023-05-02T04:10:06.368Z,34.09
2023-05-02T04:12:46.846Z,34.12
2023-05-02T04:15:19.037Z,34.13
2023-05-02T04:17:51.951Z,34.13
2023-05-02T04:20:23.724Z,34.16
2023-05-02T04:22:56.698Z,34.17
2023-05-02T04:25:27.096Z,34.19
2023-05-02T04:28:00.430Z,34.19
2023-05-02T04:30:31.034Z,34.21
2023-05-02T04:33:07.889Z,34.22
2023-05-02T04:35:42.400Z,34.25
2023-05-02T04:38:15.997Z,34.25
2023-05-02T04:40:47.468Z,34.26
2023-05-02T04:43:17.711Z,34.31
2023-05-02T04:46:03.989Z,34.32
2023-05-02T04:48:38.628Z,34.34
2023-05-02T04:51:09.117Z,34.36
2023-05-02T04:53:42.569Z,34.37
2023-05-02T04:56:13.549Z,34.40
2023-05-02T04:58:43.853Z,34.42
2023-05-02T05:01:16.091Z,34.44
2023-05-02T05:03:46.377Z,34.44
2023-05-02T05:06:18.736Z,34.47
2023-05-02T05:08:48.973Z,34.48
2023-05-02T05:11:19.751Z,34.50
2023-05-02T05:13:50.168Z,34.53
2023-05-02T05:16:20.649Z,34.31
2023-05-02T05:18:51.872Z,34.57
2023-05-02T05:21:23.077Z,34.61
2023-05-02T05:23:54.292Z,34.62
2023-05-02T05:26:28.969Z,34.66
2023-05-02T05:28:59.172Z,34.69
2023-05-02T05:31:33.946Z,34.72
2023-05-02T05:34:05.918Z,34.73
2023-05-02T05:36:36.914Z,34.74
2023-05-02T05:39:07.013Z,34.78
2023-05-02T05:41:39.627Z,34.80
2023-05-02T05:44:13.218Z,34.83
2023-05-02T05:46:43.899Z,34.85
2023-05-02T05:49:17.372Z,34.87
2023-05-02T05:51:49.055Z,34.89
2023-05-02T05:54:21.292Z,34.91
2023-05-02T05:56:51.908Z,34.94
2023-05-02T05:59:23.270Z,34.96
2023-05-02T06:01:54.878Z,34.99
2023-05-02T06:04:26.712Z,35.01
2023-05-02T06:06:57.143Z,35.04
2023-05-02T06:09:27.548Z,35.07
2023-05-02T06:11:57.855Z,35.07
2023-05-02T06:14:28.440Z,35.11
2023-05-02T06:17:01.067Z,35.16
2023-05-02T06:19:32.291Z,35.17
2023-05-02T06:22:02.874Z,35.20
2023-05-02T06:24:33.546Z,35.23
2023-05-02T06:27:03.873Z,35.24
2023-05-02T06:29:33.996Z,35.26
2023-05-02T06:32:04.258Z,35.27
2023-05-02T06:34:35.301Z,35.31
2023-05-02T06:37:05.603Z,35.32
2023-05-02T06:39:35.886Z,35.34
2023-05-02T06:42:05.965Z,35.38
2023-05-02T06:44:38.796Z,35.39
2023-05-02T06:47:09.151Z,35.42
2023-05-02T06:49:39.916Z,35.44
2023-05-02T06:52:10.034Z,35.47
2023-05-02T06:54:41.065Z,35.50
2023-05-02T06:57:12.523Z,35.51
2023-05-02T06:59:42.740Z,35.55
2023-05-02T07:02:12.975Z,35.55
2023-05-02T07:04:43.234Z,35.58
2023-05-02T07:07:13.592Z,35.62
2023-05-02T07:09:44.020Z,35.66
2023-05-02T07:12:14.211Z,35.71
2023-05-02T07:14:44.568Z,35.72
2023-05-02T07:17:14.866Z,35.75
2023-05-02T07:19:45.686Z,35.79
2023-05-02T07:22:15.978Z,35.82
2023-05-02T07:24:46.384Z,35.83
2023-05-02T07:27:16.615Z,35.84
2023-05-02T07:29:46.722Z,35.86
2023-05-02T07:32:17.334Z,35.90
2023-05-02T07:34:47.529Z,35.91
2023-05-02T07:37:17.958Z,35.93
2023-05-02T07:39:48.605Z,35.96
2023-05-02T07:42:18.719Z,35.99
2023-05-02T07:44:48.852Z,35.99
2023-05-02T07:47:19.019Z,36.06
2023-05-02T07:49:52.559Z,36.10
2023-05-02T07:52:22.916Z,36.13
2023-05-02T07:54:53.618Z,36.13
2023-05-02T07:57:25.054Z,36.14
2023-05-02T07:59:55.332Z,36.14
2023-05-02T08:02:27.638Z,36.15
2023-05-02T08:04:57.889Z,36.16
2023-05-02T08:07:28.024Z,36.18
2023-05-02T08:09:58.335Z,36.19
2023-05-02T08:12:29.225Z,36.21
2023-05-02T08:14:59.362Z,36.22
2023-05-02T08:17:30.506Z,36.23
2023-05-02T08:20:03.531Z,36.24
2023-05-02T08:22:34.507Z,36.26
2023-05-02T08:25:04.668Z,36.27
2023-05-02T08:27:36.921Z,36.27
2023-05-02T08:30:08.010Z,36.28
2023-05-02T08:32:38.641Z,36.29
2023-05-02T08:35:08.881Z,36.29
2023-05-02T08:37:39.374Z,36.30
2023-05-02T08:40:13.494Z,36.31
2023-05-02T08:42:46.198Z,36.31
2023-05-02T08:45:17.579Z,36.31
2023-05-02T08:47:48.937Z,36.32
2023-05-02T08:50:20.487Z,36.31
2023-05-02T08:52:52.977Z,36.31
2023-05-02T08:55:29.053Z,36.30
2023-05-02T08:58:00.223Z,36.30
2023-05-02T09:00:31.445Z,36.30
2023-05-02T09:03:01.585Z,36.28
2023-05-02T09:05:35.516Z,36.30
2023-05-02T09:08:06.508Z,36.29
2023-05-02T09:10:40.645Z,36.30
2023-05-02T09:13:29.374Z,36.30
2023-05-02T09:16:01.360Z,36.28
2023-05-02T09:18:35.831Z,36.25
2023-05-02T09:21:07.887Z,36.28
2023-05-02T09:23:40.092Z,36.27
2023-05-02T09:26:35.855Z,36.25
2023-05-02T09:29:06.804Z,36.24
2023-05-02T09:34:15.213Z,36.25
2023-05-02T09:36:46.690Z,36.26
2023-05-02T09:39:17.870Z,36.23
2023-05-02T09:41:49.366Z,36.22
2023-05-02T09:44:20.921Z,36.21
2023-05-02T09:46:55.569Z,36.21
2023-05-02T09:49:43.295Z,36.20
2023-05-02T09:52:14.546Z,36.19
2023-05-02T09:54:44.945Z,36.18
2023-05-02T09:57:15.319Z,36.16
2023-05-02T10:00:00.248Z,36.14
2023-05-02T10:02:32.323Z,36.14
2023-05-02T10:05:03.634Z,36.11
2023-05-02T10:07:35.395Z,36.10
2023-05-02T10:10:06.455Z,36.07
2023-05-02T10:12:36.923Z,36.05
2023-05-02T10:15:08.893Z,36.02
2023-05-02T10:17:44.407Z,36.02
2023-05-02T10:20:18.419Z,36.00
2023-05-02T10:22:49.219Z,35.99
2023-05-02T10:25:19.400Z,35.98
2023-05-02T10:27:49.863Z,35.95
2023-05-02T10:30:20.567Z,35.97
2023-05-02T10:32:51.187Z,35.93
2023-05-02T10:35:22.373Z,35.92
2023-05-02T10:37:53.530Z,35.90
2023-05-02T10:40:23.949Z,35.89
2023-05-02T10:42:54.852Z,35.87
2023-05-02T10:45:35.264Z,35.86
2023-05-02T10:48:21.707Z,35.82
2023-05-02T10:50:54.065Z,35.82
2023-05-02T10:53:25.198Z,35.79
2023-05-02T10:56:12.979Z,35.79
2023-05-02T10:58:47.391Z,35.76
2023-05-02T11:01:39.415Z,35.75
2023-05-02T11:04:10.488Z,35.65
2023-05-02T11:07:00.542Z,35.57
2023-05-02T11:09:30.824Z,35.54
2023-05-02T11:12:03.419Z,35.48
2023-05-02T11:14:36.705Z,35.50
2023-05-02T11:17:06.943Z,35.53
2023-05-02T11:19:40.277Z,35.32
2023-05-02T11:22:20.387Z,35.25
2023-05-02T11:24:50.839Z,35.24
2023-05-02T11:27:51.261Z,35.22
2023-05-02T11:30:39.453Z,35.20
2023-05-02T11:33:09.958Z,35.17
2023-05-02T11:35:44.244Z,35.17
2023-05-02T11:38:16.159Z,35.13
2023-05-02T11:40:53.327Z,35.04
2023-05-02T11:43:24.606Z,35.05
2023-05-02T11:46:00.818Z,35.09
2023-05-02T11:48:32.579Z,35.06
2023-05-02T11:51:08.423Z,35.08
2023-05-02T11:53:42.784Z,35.00
2023-05-02T11:56:13.278Z,34.99
2023-05-02T11:58:45.504Z,35.01
2023-05-02T12:01:16.720Z,35.06
2023-05-02T12:03:47.146Z,35.04
2023-05-02T12:06:20.599Z,35.02
2023-05-02T12:08:51.182Z,34.99
2023-05-02T12:11:23.178Z,35.02
2023-05-02T12:13:53.846Z,35.07
2023-05-02T12:16:24.478Z,35.05
2023-05-02T12:18:55.056Z,35.08
2023-05-02T12:21:25.364Z,35.05
2023-05-02T12:23:55.743Z,35.04
2023-05-02T12:26:34.252Z,35.03
2023-05-02T12:29:08.842Z,35.03
2023-05-02T12:31:39.081Z,35.01
2023-05-02T12:34:09.426Z,35.02
2023-05-02T12:36:45.690Z,34.98
2023-05-02T12:39:17.016Z,35.01
2023-05-02T12:41:48.063Z,34.98
2023-05-02T12:44:19.411Z,35.00
2023-05-02T12:47:02.774Z,34.98
2023-05-02T12:49:33.201Z,34.80
2023-05-02T12:52:03.301Z,34.57
2023-05-02T12:54:33.417Z,34.37
2023-05-02T12:57:04.329Z,34.20
2023-05-02T12:59:35.045Z,33.98
2023-05-02T13:02:05.426Z,33.89
2023-05-02T13:04:36.369Z,33.76
2023-05-02T13:07:06.927Z,33.73
2023-05-02T13:09:37.210Z,33.62
2023-05-02T13:12:08.112Z,33.57
2023-05-02T13:14:38.586Z,33.48
2023-05-02T13:17:10.114Z,33.35
2023-05-02T13:19:44.457Z,33.32
2023-05-02T13:22:17.925Z,33.28
2023-05-02T13:24:48.762Z,33.28
2023-05-02T13:27:20.065Z,33.25
2023-05-02T13:29:53.412Z,33.23
2023-05-02T13:32:24.824Z,33.18
2023-05-02T13:34:54.953Z,33.15
2023-05-02T13:37:25.359Z,33.05
2023-05-02T13:39:56.072Z,32.97
2023-05-02T13:42:26.388Z,32.97
2023-05-02T13:44:56.722Z,32.99
2023-05-02T13:47:27.837Z,32.94
2023-05-02T13:49:58.200Z,32.94
2023-05-02T13:52:28.430Z,32.88
2023-05-02T13:54:59.403Z,32.82
2023-05-02T13:57:29.615Z,32.76
2023-05-02T14:00:00.349Z,32.74
2023-05-02T14:02:31.063Z,32.75
2023-05-02T14:05:01.267Z,32.68
2023-05-02T14:07:34.455Z,32.62
2023-05-02T14:10:08.144Z,32.54
2023-05-02T14:12:38.476Z,32.41
2023-05-02T14:15:09.016Z,32.35
2023-05-02T14:17:39.249Z,32.25
2023-05-02T14:20:11.843Z,32.14
2023-05-02T14:22:42.564Z,32.11
2023-05-02T14:25:14.287Z,32.05
2023-05-02T14:27:45.557Z,32.05
2023-05-02T14:30:15.922Z,32.02
2023-05-02T14:32:46.065Z,32.01
2023-05-02T14:35:16.560Z,31.96
2023-05-02T14:37:48.473Z,31.90
2023-05-02T14:40:18.642Z,31.85
2023-05-02T14:42:48.845Z,31.77
2023-05-02T14:45:19.066Z,31.70
2023-05-02T14:47:49.594Z,31.63
2023-05-02T14:50:19.759Z,31.55
2023-05-02T14:52:50.230Z,31.52
2023-05-02T14:55:23.541Z,31.48
2023-05-02T14:57:54.974Z,31.43
2023-05-02T15:00:26.364Z,31.43
2023-05-02T15:03:00.309Z,31.44
2023-05-02T15:05:30.842Z,31.45
2023-05-02T15:08:01.744Z,31.42
2023-05-02T15:10:32.101Z,31.39
2023-05-02T15:13:02.183Z,31.37
2023-05-02T15:15:32.275Z,31.13
2023-05-02T15:18:02.644Z,31.35
2023-05-02T15:20:33.412Z,31.30
2023-05-02T15:23:04.871Z,31.30
2023-05-02T15:25:35.031Z,31.28
2023-05-02T15:28:05.380Z,31.27
2023-05-02T15:30:35.826Z,31.26
2023-05-02T15:33:06.688Z,31.25
2023-05-02T15:35:39.638Z,31.22
2023-05-02T15:38:10.861Z,31.17
2023-05-02T15:40:41.096Z,31.19
2023-05-02T15:43:11.209Z,31.29
2023-05-02T15:45:41.718Z,31.33
2023-05-02T15:48:12.167Z,31.32
2023-05-02T15:50:43.982Z,31.20
2023-05-02T15:53:15.097Z,31.12
2023-05-02T15:55:47.225Z,31.08
2023-05-02T15:58:19.198Z,31.01
2023-05-02T16:00:49.703Z,30.99
2023-05-02T16:03:20.334Z,30.96
2023-05-02T16:05:52.014Z,30.92
2023-05-02T16:08:22.330Z,30.93
2023-05-02T16:10:52.716Z,30.91
2023-05-02T16:13:23.463Z,30.88
2023-05-02T16:15:54.281Z,30.85
2023-05-02T16:18:29.601Z,30.80
2023-05-02T16:20:59.983Z,30.78
2023-05-02T16:23:30.296Z,30.77
2023-05-02T16:26:03.862Z,30.75
2023-05-02T16:28:34.293Z,30.74
2023-05-02T16:31:12.485Z,30.73
2023-05-02T16:33:44.243Z,30.69
2023-05-02T16:36:16.175Z,30.66
2023-05-02T16:38:46.931Z,30.67
2023-05-02T16:41:17.109Z,30.64
2023-05-02T16:43:48.301Z,30.62
2023-05-02T16:46:19.513Z,30.61
2023-05-02T16:48:50.308Z,30.60
2023-05-02T16:51:21.121Z,30.57
2023-05-02T16:53:51.455Z,30.59
2023-05-02T16:56:21.535Z,30.58
2023-05-02T16:58:51.758Z,30.54
2023-05-02T17:01:22.259Z,30.53
2023-05-02T17:03:52.646Z,30.50
2023-05-02T17:06:24.312Z,30.49
2023-05-02T17:08:54.534Z,30.46
2023-05-02T17:11:26.353Z,30.46
2023-05-02T17:13:56.844Z,30.45
2023-05-02T17:16:27.095Z,30.44
2023-05-02T17:18:57.277Z,30.44
2023-05-02T17:21:29.177Z,30.40
2023-05-02T17:23:59.480Z,30.37
2023-05-02T17:26:30.181Z,30.37
2023-05-02T17:29:00.424Z,30.36
2023-05-02T17:31:30.693Z,30.33
2023-05-02T17:34:00.849Z,30.34
2023-05-02T17:36:31.429Z,30.31
2023-05-02T17:39:01.565Z,30.28
2023-05-02T17:41:32.264Z,30.25
2023-05-02T17:44:02.675Z,30.26
2023-05-02T17:46:33.928Z,30.23
2023-05-02T17:49:04.366Z,30.22
2023-05-02T17:51:35.144Z,30.22
2023-05-02T17:54:05.455Z,30.19
2023-05-02T17:56:38.758Z,30.16
2023-05-02T17:59:08.898Z,30.17
2023-05-02T18:01:39.630Z,30.13
2023-05-02T18:04:14.045Z,30.11
2023-05-02T18:09:17.653Z,30.11
2023-05-02T18:11:48.758Z,30.09
2023-05-02T18:14:20.430Z,30.08
2023-05-02T18:16:50.866Z,30.09
2023-05-02T18:19:21.689Z,30.08
2023-05-02T18:21:51.966Z,30.03
2023-05-02T18:24:22.141Z,30.01
2023-05-02T18:26:55.473Z,30.00
2023-05-02T18:29:25.708Z,29.97
2023-05-02T18:31:56.984Z,29.99
2023-05-02T18:34:27.230Z,30.00
2023-05-02T18:37:00.865Z,29.96
2023-05-02T18:39:35.483Z,29.93
2023-05-02T18:42:06.085Z,29.93
2023-05-02T18:44:36.238Z,29.95
2023-05-02T18:47:06.359Z,29.92
2023-05-02T18:49:36.862Z,29.89
2023-05-02T18:52:07.314Z,29.92
2023-05-02T18:54:37.661Z,29.91
2023-05-02T18:57:08.250Z,29.88
2023-05-02T18:59:38.565Z,29.88
2023-05-02T19:02:09.008Z,29.84
2023-05-02T19:04:39.148Z,29.86
2023-05-02T19:07:09.269Z,29.83
2023-05-02T19:09:39.371Z,29.84
2023-05-02T19:12:09.501Z,29.82
2023-05-02T19:14:40.995Z,29.82
2023-05-02T19:17:11.112Z,29.81
2023-05-02T19:19:41.400Z,29.81
2023-05-02T19:22:11.662Z,29.80
2023-05-02T19:24:41.785Z,29.78
2023-05-02T19:27:12.135Z,29.76
2023-05-02T19:29:43.024Z,29.75
2023-05-02T19:32:14.481Z,29.75
2023-05-02T19:34:44.715Z,29.73
2023-05-02T19:37:15.314Z,29.71
2023-05-02T19:39:45.445Z,29.71
2023-05-02T19:42:15.880Z,29.69
2023-05-02T19:44:45.951Z,29.69
2023-05-02T19:47:16.100Z,29.66
2023-05-02T19:49:46.832Z,29.66
2023-05-02T19:52:16.981Z,29.67
2023-05-02T19:54:47.088Z,29.66
2023-05-02T19:57:19.243Z,29.65
2023-05-02T19:59:52.848Z,29.63
2023-05-02T20:02:23.503Z,29.61
2023-05-02T20:04:53.824Z,29.62
2023-05-02T20:07:24.212Z,29.59
2023-05-02T20:09:54.688Z,29.60
2023-05-02T20:12:24.987Z,29.59
2023-05-02T20:14:56.265Z,29.58
2023-05-02T20:17:26.980Z,29.56
2023-05-02T20:19:57.664Z,29.55
2023-05-02T20:22:27.719Z,29.55
2023-05-02T20:24:57.898Z,29.54
2023-05-02T20:27:28.332Z,29.54
2023-05-02T20:30:00.179Z,29.50
2023-05-02T20:32:30.927Z,29.49
2023-05-02T20:35:33.773Z,29.49
2023-05-02T20:38:07.260Z,29.48
2023-05-02T20:40:42.169Z,29.48
2023-05-02T20:43:13.261Z,29.46
2023-05-02T20:45:43.583Z,29.44
2023-05-02T20:48:17.090Z,29.44
2023-05-02T20:50:54.919Z,29.44
2023-05-02T20:53:25.180Z,29.45
2023-05-02T20:55:55.608Z,29.41
2023-05-02T20:58:25.692Z,29.40
2023-05-02T21:00:55.804Z,29.40
2023-05-02T21:03:26.110Z,29.37
2023-05-02T21:06:02.279Z,29.38
2023-05-02T21:08:32.468Z,29.36
2023-05-02T21:11:02.586Z,29.36
2023-05-02T21:13:32.708Z,29.34
2023-05-02T21:16:02.933Z,29.34
2023-05-02T21:18:33.375Z,29.35
2023-05-02T21:21:03.460Z,29.32
2023-05-02T21:23:33.554Z,29.34
2023-05-02T21:26:03.707Z,29.32
2023-05-02T21:28:33.833Z,29.33
2023-05-02T21:31:04.737Z,29.40
2023-05-02T21:33:34.835Z,29.42
2023-05-02T21:36:05.201Z,29.45
2023-05-02T21:38:35.693Z,29.46
2023-05-02T21:41:06.392Z,29.45
2023-05-02T21:43:37.671Z,29.47
2023-05-02T21:46:08.200Z,29.47
2023-05-02T21:48:38.738Z,29.46
2023-05-02T21:51:13.062Z,29.44
2023-05-02T21:53:43.662Z,29.47
2023-05-02T21:56:13.813Z,29.44
2023-05-02T21:58:44.400Z,29.44
2023-05-02T22:01:14.530Z,29.43
2023-05-02T22:03:44.985Z,29.42
2023-05-02T22:06:15.772Z,29.41
2023-05-02T22:08:46.153Z,29.42
2023-05-02T22:11:17.338Z,29.38
2023-05-02T22:13:47.732Z,29.36
2023-05-02T22:16:18.660Z,29.35
2023-05-02T22:18:50.854Z,29.32
2023-05-02T22:21:21.016Z,29.34
2023-05-02T22:23:51.125Z,29.31
2023-05-02T22:26:21.249Z,29.33
2023-05-02T22:28:51.557Z,29.27
2023-05-02T22:31:22.091Z,29.31
2023-05-02T22:33:52.566Z,29.31
2023-05-02T22:36:22.994Z,29.30
2023-05-02T22:38:53.364Z,29.28
2023-05-02T22:41:23.487Z,29.26
2023-05-02T22:43:53.646Z,29.25
2023-05-02T22:46:23.802Z,29.26
2023-05-02T22:48:58.090Z,29.24
2023-05-02T22:51:28.630Z,29.24
2023-05-02T22:53:58.956Z,29.19
2023-05-02T22:56:29.519Z,29.22
2023-05-02T22:58:59.650Z,29.21
2023-05-02T23:01:30.042Z,29.17
2023-05-02T23:04:01.073Z,29.31
2023-05-02T23:06:31.145Z,29.46
2023-05-02T23:09:01.314Z,29.58
2023-05-02T23:11:31.553Z,29.71
2023-05-02T23:14:02.447Z,29.82
2023-05-02T23:16:32.559Z,29.94
2023-05-02T23:19:02.842Z,30.04
2023-05-02T23:21:33.357Z,30.12
2023-05-02T23:24:03.530Z,30.21
2023-05-02T23:26:33.831Z,30.27
2023-05-02T23:29:03.938Z,30.38
2023-05-02T23:31:34.248Z,30.43
2023-05-02T23:34:04.488Z,30.35
2023-05-02T23:36:35.777Z,30.60
2023-05-02T23:39:07.144Z,30.69
2023-05-02T23:41:37.402Z,30.77
2023-05-02T23:44:07.642Z,30.86
2023-05-02T23:46:37.966Z,30.94
2023-05-02T23:49:08.687Z,31.01
2023-05-02T23:51:39.200Z,31.06
2023-05-02T23:54:09.451Z,31.11
2023-05-02T23:56:39.554Z,31.16
2023-05-02T23:59:09.695Z,31.24
